createdAt,value
2023-05-09T00:03:14.402Z,8.45
2023-05-09T00:07:32.111Z,7.82
2023-05-09T00:11:49.420Z,7.68
2023-05-09T00:16:07.378Z,12.35
2023-05-09T00:20:24.717Z,8.40
2023-05-09T00:24:42.036Z,8.25
2023-05-09T00:28:59.382Z,8.88
2023-05-09T00:33:16.645Z,10.40
2023-05-09T00:37:34.148Z,8.02
2023-05-09T00:41:52.519Z,12.43
2023-05-09T00:46:10.019Z,7.38
2023-05-09T00:50:27.327Z,10.35
2023-05-09T00:54:44.928Z,9.75
2023-05-09T00:59:03.800Z,8.50
2023-05-09T01:03:21.566Z,11.63
2023-05-09T01:07:52.462Z,7.87
2023-05-09T01:12:30.211Z,10.68
2023-05-09T01:17:04.176Z,9.73
2023-05-09T01:21:27.347Z,10.70
2023-05-09T01:25:55.055Z,9.75
2023-05-09T01:30:13.954Z,11.13
2023-05-09T01:34:33.988Z,12.57
2023-05-09T01:38:52.883Z,12.73
2023-05-09T01:43:11.318Z,8.43
2023-05-09T01:47:29.081Z,13.60
2023-05-09T01:51:48.387Z,12.30
2023-05-09T01:56:06.983Z,9.68
2023-05-09T02:04:43.441Z,9.20
2023-05-09T02:09:02.476Z,10.32
2023-05-09T02:13:19.838Z,11.98
2023-05-09T02:17:37.296Z,13.23
2023-05-09T02:21:55.029Z,11.18
2023-05-09T02:26:12.672Z,10.90
2023-05-09T02:30:36.797Z,11.48
2023-05-09T02:34:54.572Z,10.27
2023-05-09T02:39:12.065Z,11.07
2023-05-09T02:43:29.267Z,10.30
2023-05-09T02:47:46.648Z,10.20
2023-05-09T02:52:04.191Z,9.45
2023-05-09T02:56:21.627Z,12.45
2023-05-09T03:00:39.134Z,8.90
2023-05-09T03:04:56.722Z,12.35
2023-05-09T03:09:15.239Z,11.07
2023-05-09T03:13:32.599Z,9.32
2023-05-09T03:17:49.980Z,11.63
2023-05-09T03:22:07.544Z,8.85
2023-05-09T03:26:25.777Z,9.57
2023-05-09T03:30:43.022Z,11.02
2023-05-09T03:35:00.241Z,11.45
2023-05-09T03:39:17.503Z,10.63
2023-05-09T03:43:35.102Z,12.80
2023-05-09T03:47:52.282Z,9.18
2023-05-09T03:52:09.649Z,12.27
2023-05-09T03:56:27.452Z,9.37
2023-05-09T04:00:44.843Z,11.05
2023-05-09T04:05:02.210Z,12.60
2023-05-09T04:09:19.614Z,10.77
2023-05-09T04:13:37.049Z,10.27
2023-05-09T04:17:54.596Z,11.38
2023-05-09T04:22:11.921Z,17.00
2023-05-09T04:26:30.225Z,13.15
2023-05-09T04:30:47.522Z,12.25
2023-05-09T04:35:06.600Z,12.75
2023-05-09T04:39:23.883Z,10.15
2023-05-09T04:43:41.447Z,13.77
2023-05-09T04:47:59.044Z,12.95
2023-05-09T04:52:16.348Z,9.10
2023-05-09T04:56:34.075Z,11.93
2023-05-09T05:00:51.525Z,11.73
2023-05-09T05:05:12.086Z,9.45
2023-05-09T05:09:29.869Z,11.23
2023-05-09T05:13:47.166Z,9.77
2023-05-09T05:18:04.473Z,9.48
2023-05-09T05:22:21.680Z,9.57
2023-05-09T05:26:38.939Z,8.32
2023-05-09T05:30:56.103Z,8.15
2023-05-09T05:35:13.580Z,8.52
2023-05-09T05:39:31.653Z,5.75
2023-05-09T05:43:49.219Z,7.00
2023-05-09T05:48:06.696Z,5.90
2023-05-09T05:52:24.061Z,9.00
2023-05-09T05:56:42.063Z,6.50
2023-05-09T06:00:59.725Z,5.83
2023-05-09T06:05:17.424Z,6.82
2023-05-09T06:09:35.480Z,7.18
2023-05-09T06:13:53.059Z,10.48
2023-05-09T06:18:10.871Z,7.00
2023-05-09T06:22:28.230Z,6.32
2023-05-09T06:26:46.004Z,8.07
2023-05-09T06:31:03.430Z,7.50
2023-05-09T06:35:20.938Z,4.20
2023-05-09T06:39:38.234Z,3.90
2023-05-09T06:43:55.496Z,7.55
2023-05-09T06:48:13.184Z,7.93
2023-05-09T06:52:30.433Z,4.55
2023-05-09T06:56:47.858Z,6.50
2023-05-09T07:01:05.428Z,6.50
2023-05-09T07:05:23.075Z,4.30
2023-05-09T07:09:40.478Z,4.03
2023-05-09T07:13:58.691Z,3.88
2023-05-09T07:18:18.443Z,7.18
2023-05-09T07:22:37.413Z,5.10
2023-05-09T07:26:56.665Z,6.18
2023-05-09T07:31:13.933Z,3.30
2023-05-09T07:35:31.254Z,4.55
2023-05-09T07:39:48.984Z,7.22
2023-05-09T07:44:06.360Z,5.60
2023-05-09T07:48:23.779Z,4.32
2023-05-09T07:52:41.130Z,4.43
2023-05-09T07:56:58.726Z,4.47
2023-05-09T08:01:16.223Z,4.45
2023-05-09T08:05:33.617Z,4.93
2023-05-09T08:09:51.227Z,5.20
2023-05-09T08:14:08.488Z,4.13
2023-05-09T08:18:26.617Z,5.60
2023-05-09T08:22:44.119Z,4.13
2023-05-09T08:27:01.653Z,4.57
2023-05-09T08:31:18.991Z,6.78
2023-05-09T08:35:36.346Z,3.42
2023-05-09T08:39:53.616Z,5.53
2023-05-09T08:44:11.447Z,5.30
2023-05-09T08:48:28.876Z,4.27
2023-05-09T08:52:46.455Z,5.95
2023-05-09T08:57:05.012Z,3.47
2023-05-09T09:01:22.723Z,3.10
2023-05-09T09:05:42.820Z,6.53
2023-05-09T09:10:02.935Z,4.60
2023-05-09T09:14:27.646Z,5.45
2023-05-09T09:18:46.065Z,3.60
2023-05-09T09:23:05.564Z,5.35
2023-05-09T09:27:23.106Z,5.50
2023-05-09T09:31:47.839Z,5.28
2023-05-09T09:36:07.625Z,4.85
2023-05-09T09:40:25.401Z,3.97
2023-05-09T09:44:42.877Z,2.40
2023-05-09T09:49:00.164Z,2.78
2023-05-09T09:53:20.777Z,4.18
2023-05-09T09:57:41.717Z,2.85
2023-05-09T10:02:07.538Z,4.90
2023-05-09T10:06:25.785Z,7.40
2023-05-09T10:10:46.163Z,7.65
2023-05-09T10:15:08.996Z,3.10
2023-05-09T10:19:29.848Z,3.33
2023-05-09T10:23:50.421Z,3.65
2023-05-09T10:28:12.036Z,3.97
2023-05-09T10:32:43.611Z,6.13
2023-05-09T10:37:01.618Z,4.45
2023-05-09T10:41:20.058Z,4.00
2023-05-09T10:45:38.745Z,3.20
2023-05-09T10:54:31.071Z,4.75
2023-05-09T10:58:49.079Z,4.10
2023-05-09T11:03:13.570Z,7.80
2023-05-09T11:07:43.495Z,5.85
2023-05-09T11:12:07.178Z,2.92
2023-05-09T11:16:27.763Z,4.68
2023-05-09T11:20:48.483Z,2.95
2023-05-09T11:25:07.462Z,4.50
2023-05-09T11:29:42.992Z,2.45
2023-05-09T11:34:04.985Z,3.05
2023-05-09T11:38:23.182Z,3.60
2023-05-09T11:42:46.048Z,2.97
2023-05-09T11:47:04.532Z,3.90
2023-05-09T11:51:21.927Z,3.17
2023-05-09T11:55:41.758Z,2.53
2023-05-09T12:00:01.290Z,4.43
2023-05-09T12:04:18.741Z,5.55
2023-05-09T12:08:37.429Z,3.45
2023-05-09T12:12:56.073Z,2.22
2023-05-09T12:21:32.189Z,3.10
2023-05-09T12:25:57.430Z,2.17
2023-05-09T12:30:16.212Z,3.90
2023-05-09T12:34:33.581Z,2.88
2023-05-09T12:39:00.775Z,1.65
2023-05-09T12:43:17.999Z,7.13
2023-05-09T12:47:35.743Z,2.40
2023-05-09T12:51:56.945Z,2.03
2023-05-09T12:56:19.114Z,4.43
2023-05-09T13:00:43.784Z,4.75
2023-05-09T13:05:17.811Z,5.03
2023-05-09T13:09:35.144Z,4.03
2023-05-09T13:13:54.284Z,6.70
2023-05-09T13:18:12.221Z,3.05
2023-05-09T13:22:29.612Z,4.13
2023-05-09T13:26:47.012Z,3.60
2023-05-09T13:31:05.804Z,6.00
2023-05-09T13:35:25.316Z,2.83
2023-05-09T13:39:42.965Z,5.95
2023-05-09T13:44:00.501Z,3.00
2023-05-09T13:48:17.892Z,3.80
2023-05-09T13:52:36.802Z,4.35
2023-05-09T13:56:54.199Z,5.88
2023-05-09T14:01:11.977Z,9.13
2023-05-09T14:05:31.597Z,9.43
2023-05-09T14:09:51.964Z,7.00
2023-05-09T14:14:12.148Z,8.15
2023-05-09T14:18:30.663Z,6.30
2023-05-09T14:22:48.348Z,4.38
2023-05-09T14:27:05.698Z,3.80
2023-05-09T14:31:23.579Z,5.15
2023-05-09T14:35:41.768Z,3.30
2023-05-09T14:40:05.758Z,3.78
2023-05-09T14:44:25.478Z,8.27
2023-05-09T14:48:42.928Z,3.95
2023-05-09T14:53:01.105Z,6.47
2023-05-09T14:57:18.424Z,5.30
2023-05-09T15:01:36.015Z,4.40
2023-05-09T15:05:54.121Z,5.45
2023-05-09T15:10:12.107Z,5.70
2023-05-09T15:14:29.289Z,6.82
2023-05-09T15:18:46.957Z,8.88
2023-05-09T15:27:24.088Z,4.45
2023-05-09T15:31:41.705Z,6.07
2023-05-09T15:36:00.032Z,4.30
2023-05-09T15:40:17.519Z,5.43
2023-05-09T15:44:34.855Z,3.25
2023-05-09T15:48:54.010Z,5.78
2023-05-09T15:53:12.821Z,5.45
2023-05-09T15:57:30.104Z,6.68
2023-05-09T16:01:48.224Z,3.58
2023-05-09T16:06:06.159Z,6.77
2023-05-09T16:10:23.604Z,4.23
2023-05-09T16:14:41.498Z,3.83
2023-05-09T16:18:59.271Z,9.77
2023-05-09T16:23:17.063Z,6.97
2023-05-09T16:27:34.718Z,4.78
2023-05-09T16:31:52.978Z,8.45
2023-05-09T16:36:10.337Z,6.82
2023-05-09T16:40:28.684Z,4.15
2023-05-09T16:44:58.536Z,4.90
2023-05-09T16:49:17.121Z,6.25
2023-05-09T16:53:34.368Z,5.78
2023-05-09T16:57:51.610Z,4.93
2023-05-09T17:02:09.180Z,4.03
2023-05-09T17:06:27.234Z,4.38
2023-05-09T17:10:44.580Z,9.37
2023-05-09T17:15:03.735Z,4.82
2023-05-09T17:19:25.832Z,4.53
2023-05-09T17:23:43.641Z,4.93
2023-05-09T17:28:01.327Z,8.88
2023-05-09T17:32:18.852Z,4.85
2023-05-09T17:36:36.419Z,5.38
2023-05-09T17:40:54.026Z,6.78
2023-05-09T17:45:12.691Z,3.03
2023-05-09T17:49:31.928Z,5.93
2023-05-09T17:53:49.535Z,7.30
2023-05-09T17:58:08.401Z,5.30
2023-05-09T18:06:45.762Z,12.95
2023-05-09T18:11:03.474Z,4.85
2023-05-09T18:15:21.131Z,6.70
2023-05-09T18:19:41.293Z,5.93
2023-05-09T18:23:58.932Z,7.03
2023-05-09T18:28:22.876Z,4.38
2023-05-09T18:32:41.116Z,4.78
2023-05-09T18:36:58.949Z,6.45
2023-05-09T18:41:17.717Z,5.95
2023-05-09T18:45:35.727Z,6.20
2023-05-09T18:49:53.303Z,5.03
2023-05-09T18:54:11.369Z,5.05
2023-05-09T18:58:29.093Z,3.40
2023-05-09T19:02:46.749Z,4.97
2023-05-09T19:07:04.352Z,6.70
2023-05-09T19:11:22.651Z,9.18
2023-05-09T19:15:40.472Z,8.55
2023-05-09T19:19:58.298Z,5.75
2023-05-09T19:24:15.708Z,5.47
2023-05-09T19:28:35.424Z,6.93
2023-05-09T19:32:53.101Z,9.13
2023-05-09T19:37:11.024Z,5.82
2023-05-09T19:41:28.461Z,10.43
2023-05-09T19:45:46.227Z,7.25
2023-05-09T19:50:04.479Z,9.88
2023-05-09T19:54:25.981Z,4.87
2023-05-09T19:58:43.575Z,5.07
2023-05-09T20:03:04.064Z,5.93
2023-05-09T20:07:21.764Z,7.00
2023-05-09T20:11:39.358Z,5.47
2023-05-09T20:15:57.856Z,7.55
2023-05-09T20:20:15.726Z,9.45
2023-05-09T20:24:33.505Z,7.77
2023-05-09T20:28:51.034Z,8.88
2023-05-09T20:33:08.707Z,7.75
2023-05-09T20:37:26.243Z,6.30
2023-05-09T20:41:47.922Z,6.30
2023-05-09T20:46:05.637Z,5.07
2023-05-09T20:50:23.269Z,4.63
2023-05-09T20:54:40.818Z,5.13
2023-05-09T20:59:03.606Z,7.53
2023-05-09T21:03:20.990Z,7.88
2023-05-09T21:07:38.409Z,9.07
2023-05-09T21:11:55.833Z,7.78
2023-05-09T21:16:13.036Z,5.63
2023-05-09T21:20:30.887Z,8.90
2023-05-09T21:24:48.326Z,5.20
2023-05-09T21:29:06.551Z,4.72
2023-05-09T21:33:23.810Z,7.57
2023-05-09T21:37:41.264Z,9.73
2023-05-09T21:41:58.558Z,5.82
2023-05-09T21:46:15.855Z,7.85
2023-05-09T21:50:33.153Z,5.20
2023-05-09T21:54:50.698Z,3.58
2023-05-09T21:59:08.511Z,6.25
2023-05-09T22:03:26.133Z,4.70
2023-05-09T22:07:43.547Z,5.18
2023-05-09T22:12:01.126Z,7.45
2023-05-09T22:16:18.410Z,5.82
2023-05-09T22:20:36.116Z,4.97
2023-05-09T22:24:53.670Z,5.43
2023-05-09T22:29:11.046Z,6.70
2023-05-09T22:33:28.242Z,4.22
2023-05-09T22:37:45.755Z,6.38
2023-05-09T22:42:04.085Z,6.35
2023-05-09T22:46:21.444Z,6.82
2023-05-09T22:50:38.887Z,4.90
2023-05-09T22:54:56.117Z,5.60
2023-05-09T22:59:14.147Z,7.80
2023-05-09T23:03:32.018Z,5.40
2023-05-09T23:07:49.302Z,6.22
2023-05-09T23:12:15.010Z,5.90
2023-05-09T23:16:32.341Z,6.65
2023-05-09T23:20:50.595Z,7.95
2023-05-09T23:25:08.593Z,9.23
2023-05-09T23:29:25.974Z,5.70
2023-05-09T23:33:43.984Z,8.60
2023-05-09T23:38:01.325Z,10.80
2023-05-09T23:42:18.602Z,11.52
2023-05-09T23:46:35.870Z,5.47
2023-05-09T23:50:53.222Z,11.02
2023-05-09T23:55:10.723Z,6.90
2023-05-09T23:59:27.967Z,5.78
